04:40
Airports
Links
Donate
Help keep this website running!
PayPal
Bitcoin
METAR
KVJI 120435Z AUTO 00000KT 10SM CLR 01/M02 A2983 RMK AO2 T00141017
Current Weather Conditions at KVJI
VFR 04:35:00 12-12-17
Automated station, no observer
Altimeter:29.83 hg
Temp:1.4°c 34°f
Dew point:-1.7°c 30°f
Wind:0 knots, 0 mph, 0 m/s,
Variable direction
Visibility:10.0 statute miles
(CLR) Clear
Past METAR reports
VFR 04:15:00 12-12-17
Automated station, no observer
Altimeter:29.84 hg
Temp:1.1°c 34°f
Dew point:-1.6°c 30°f
Wind:0 knots, 0 mph, 0 m/s,
Variable direction
Visibility:10.0 statute miles
(CLR) Clear
KVJI 120415Z AUTO 00000KT 10SM CLR 01/M02 A2984 RMK AO2 T00111016
VFR 03:55:00 12-12-17
Automated station, no observer
Altimeter:29.85 hg
Temp:1.4°c 34°f
Dew point:-1.8°c 30°f
Wind:0 knots, 0 mph, 0 m/s,
Variable direction
Visibility:10.0 statute miles
(CLR) Clear
KVJI 120355Z AUTO 00000KT 10SM CLR 01/M02 A2985 RMK AO2 T00141018
VFR 03:35:00 12-12-17
Automated station, no observer
Altimeter:29.85 hg
Temp:0.5°c 32°f
Dew point:-2.0°c 28°f
Wind:0 knots, 0 mph, 0 m/s,
Variable direction
Visibility:10.0 statute miles
(CLR) Clear
KVJI 120335Z AUTO 00000KT 10SM CLR 01/M02 A2985 RMK AO2 T00051020
VFR 03:15:00 12-12-17
Automated station, no observer
Altimeter:29.85 hg
Temp:1.2°c 34°f
Dew point:-1.6°c 30°f
Wind:0 knots, 0 mph, 0 m/s,
Variable direction
Visibility:10.0 statute miles
(CLR) Clear
KVJI 120315Z AUTO 00000KT 10SM CLR 01/M02 A2985 RMK AO2 T00121016
VFR 02:55:00 12-12-17
Automated station, no observer
Altimeter:29.85 hg
Temp:1.4°c 34°f
Dew point:-2.0°c 28°f
Wind:0 knots, 0 mph, 0 m/s,
Variable direction
Visibility:10.0 statute miles
(CLR) Clear
KVJI 120255Z AUTO 00000KT 10SM CLR 01/M02 A2985 RMK AO2 T00141020
VFR 02:35:00 12-12-17
Automated station, no observer
Altimeter:29.86 hg
Temp:1.6°c 34°f
Dew point:-1.8°c 30°f
Wind:0 knots, 0 mph, 0 m/s,
Variable direction
Visibility:10.0 statute miles
(CLR) Clear
KVJI 120235Z AUTO 00000KT 10SM CLR 02/M02 A2986 RMK AO2 T00161018
TAF
No TAF for KVJI
Forecast at KVJI
No Forecast Reports for KVJI